Station Historical Data
Daily Summary for February 22, 2017 Units:  English    Metric   Both
« Previous Day
Next Day »
Daily Weekly Monthly Yearly Custom
  High: Low: Average:
Temperature: 59.4 °F 40.2 °F 50.8 °F
Dew Point: 52.0 °F 37.8 °F 45.9 °F
Humidity: 94% 64% 84%
Wind Speed: 8.0mph 0.0mph 2mph
Wind Gust: 15.0mph - -
Wind- - SW
Pressure: 29.95 in 29.75 in -
Precipitation: 0.00 in    
Historical Graphs
 
 
Tabular Data for February 22, 2017
Time Temperature Dew Point Pressure Wind Wind Speed Wind Gust Humidity Rainfall Rate (Hourly)
00:04 46.0 °F 42.6 °F 29.95 in Calm     88% 0.00 in
00:09 46.0 °F 42.6 °F 29.95 in Calm     88% 0.00 in
00:14 46.0 °F 42.6 °F 29.95 in Calm     88% 0.00 in
00:19 46.1 °F 42.7 °F 29.95 in Calm     88% 0.00 in
00:24 46.2 °F 42.8 °F 29.95 in Calm     88% 0.00 in
00:29 46.3 °F 42.9 °F 29.95 in Calm     88% 0.00 in
00:34 46.4 °F 43.0 °F 29.95 in Calm     88% 0.00 in
00:39 46.5 °F 43.1 °F 29.95 in Calm     88% 0.00 in
00:44 46.5 °F 43.1 °F 29.95 in Calm     88% 0.00 in
00:49 46.4 °F 43.0 °F 29.95 in Calm     88% 0.00 in
00:54 46.5 °F 43.1 °F 29.95 in Calm     88% 0.00 in
00:59 46.5 °F 43.1 °F 29.95 in Calm     88% 0.00 in
01:04 46.6 °F 43.2 °F 29.94 in Calm     88% 0.00 in
01:09 46.5 °F 43.1 °F 29.94 in Calm     88% 0.00 in
01:14 46.5 °F 43.1 °F 29.94 in Calm     88% 0.00 in
01:19 46.6 °F 43.2 °F 29.94 in Calm     88% 0.00 in
01:24 46.5 °F 43.1 °F 29.94 in Calm     88% 0.00 in
01:29 46.5 °F 43.1 °F 29.93 in Calm     88% 0.00 in
01:34 46.2 °F 42.8 °F 29.93 in Calm     88% 0.00 in
01:39 45.9 °F 42.5 °F 29.93 in Calm     88% 0.00 in
01:44 45.6 °F 42.3 °F 29.93 in Calm     88% 0.00 in
01:49 45.2 °F 42.2 °F 29.93 in Calm     89% 0.00 in
01:54 44.9 °F 41.9 °F 29.93 in Calm     89% 0.00 in
01:59 44.9 °F 42.1 °F 29.93 in Calm     90% 0.00 in
02:04 44.9 °F 42.1 °F 29.93 in Calm     90% 0.00 in
02:09 44.5 °F 41.7 °F 29.92 in Calm     90% 0.00 in
02:14 44.1 °F 41.4 °F 29.93 in Calm     90% 0.00 in
02:19 43.7 °F 41.0 °F 29.92 in Calm     90% 0.00 in
02:24 43.5 °F 40.8 °F 29.93 in Calm     90% 0.00 in
02:29 43.5 °F 41.0 °F 29.93 in Calm     91% 0.00 in
02:34 43.4 °F 40.9 °F 29.93 in Calm     91% 0.00 in
02:39 43.4 °F 41.2 °F 29.93 in Calm     92% 0.00 in
02:44 43.2 °F 40.8 °F 29.93 in Calm     91% 0.00 in
02:49 43.3 °F 40.8 °F 29.93 in Calm     91% 0.00 in
02:54 43.2 °F 41.0 °F 29.92 in Calm     92% 0.00 in
02:59 43.1 °F 40.9 °F 29.93 in Calm     92% 0.00 in
03:04 43.0 °F 40.8 °F 29.92 in Calm     92% 0.00 in
03:09 42.6 °F 40.4 °F 29.92 in Calm     92% 0.00 in
03:14 42.6 °F 40.4 °F 29.92 in Calm     92% 0.00 in
03:19 42.6 °F 40.4 °F 29.92 in Calm     92% 0.00 in
03:24 42.2 °F 40.0 °F 29.92 in Calm     92% 0.00 in
03:29 41.6 °F 39.4 °F 29.92 in Calm     92% 0.00 in
03:34 41.4 °F 39.3 °F 29.92 in Calm     92% 0.00 in
03:39 41.3 °F 39.4 °F 29.92 in Calm     93% 0.00 in
03:44 41.1 °F 39.0 °F 29.93 in Calm     92% 0.00 in
03:49 41.7 °F 39.8 °F 29.92 in Calm     93% 0.00 in
03:54 41.7 °F 39.8 °F 29.92 in Calm     93% 0.00 in
03:59 41.7 °F 39.8 °F 29.92 in Calm     93% 0.00 in
04:04 41.9 °F 40.0 °F 29.92 in Calm     93% 0.00 in
04:09 41.9 °F 40.0 °F 29.92 in Calm     93% 0.00 in
04:14 41.9 °F 40.0 °F 29.93 in Calm     93% 0.00 in
04:19 41.9 °F 40.0 °F 29.93 in Calm     93% 0.00 in
04:24 41.6 °F 39.7 °F 29.92 in Calm     93% 0.00 in
04:29 41.7 °F 39.8 °F 29.92 in Calm     93% 0.00 in
04:34 41.9 °F 40.0 °F 29.92 in Calm     93% 0.00 in
04:39 41.8 °F 39.9 °F 29.92 in Calm     93% 0.00 in
04:44 41.7 °F 39.8 °F 29.92 in Calm     93% 0.00 in
04:49 41.3 °F 39.4 °F 29.92 in Calm     93% 0.00 in
04:54 41.4 °F 39.8 °F 29.92 in Calm     94% 0.00 in
04:59 41.6 °F 39.7 °F 29.92 in Calm     93% 0.00 in
05:04 41.8 °F 40.2 °F 29.92 in Calm   3.0 mph 94% 0.00 in
05:09 41.9 °F 40.3 °F 29.92 in ESE 1.0 mph 3.0 mph 94% 0.00 in
05:14 42.3 °F 40.7 °F 29.91 in Calm     94% 0.00 in
05:19 42.4 °F 40.8 °F 29.91 in ESE 1.0 mph 3.0 mph 94% 0.00 in
05:24 42.6 °F 41.0 °F 29.91 in Calm   2.0 mph 94% 0.00 in
05:29 42.6 °F 40.7 °F 29.91 in Calm     93% 0.00 in
05:34 42.4 °F 40.5 °F 29.91 in Calm     93% 0.00 in
05:39 42.3 °F 40.4 °F 29.91 in Calm     93% 0.00 in
05:44 42.0 °F 40.1 °F 29.91 in Calm     93% 0.00 in
05:49 41.7 °F 39.8 °F 29.92 in Calm     93% 0.00 in
05:54 41.6 °F 39.7 °F 29.91 in Calm     93% 0.00 in
05:59 41.6 °F 39.7 °F 29.91 in Calm     93% 0.00 in
06:04 41.4 °F 39.5 °F 29.92 in Calm     93% 0.00 in
06:09 41.0 °F 38.9 °F 29.91 in Calm     92% 0.00 in
06:14 41.1 °F 39.2 °F 29.91 in Calm     93% 0.00 in
06:19 40.9 °F 38.8 °F 29.91 in Calm     92% 0.00 in
06:24 40.7 °F 38.6 °F 29.91 in Calm     92% 0.00 in
06:29 40.7 °F 38.8 °F 29.91 in Calm     93% 0.00 in
06:34 40.7 °F 38.8 °F 29.91 in Calm     93% 0.00 in
06:39 41.3 °F 39.4 °F 29.91 in Calm     93% 0.00 in
06:44 41.5 °F 39.3 °F 29.91 in Calm     92% 0.00 in
06:49 41.5 °F 39.3 °F 29.91 in Calm     92% 0.00 in
06:54 41.8 °F 39.4 °F 29.91 in Calm     91% 0.00 in
06:59 41.8 °F 39.4 °F 29.91 in Calm     91% 0.00 in
07:04 41.6 °F 38.9 °F 29.91 in Calm     90% 0.00 in
07:09 40.8 °F 37.8 °F 29.91 in Calm     89% 0.00 in
07:14 40.5 °F 37.8 °F 29.91 in Calm     90% 0.00 in
07:19 40.4 °F 38.0 °F 29.92 in Calm     91% 0.00 in
07:24 40.2 °F 37.8 °F 29.92 in Calm     91% 0.00 in
07:29 40.5 °F 38.1 °F 29.91 in Calm     91% 0.00 in
07:34 41.4 °F 39.0 °F 29.91 in Calm     91% 0.00 in
07:39 41.9 °F 39.2 °F 29.91 in Calm     90% 0.00 in
07:44 42.1 °F 39.4 °F 29.91 in Calm     90% 0.00 in
07:49 42.1 °F 39.1 °F 29.91 in Calm     89% 0.00 in
07:54 42.4 °F 39.1 °F 29.92 in Calm     88% 0.00 in
07:59 42.7 °F 39.4 °F 29.91 in Calm     88% 0.00 in
08:04 43.7 °F 39.8 °F 29.91 in Calm     86% 0.00 in
08:09 44.6 °F 40.1 °F 29.91 in Calm     84% 0.00 in
08:14 45.2 °F 40.3 °F 29.91 in Calm     83% 0.00 in
08:19 45.5 °F 40.3 °F 29.91 in Calm     82% 0.00 in
08:24 45.8 °F 40.3 °F 29.91 in Calm     81% 0.00 in
08:29 46.3 °F 40.1 °F 29.91 in Calm     79% 0.00 in
08:34 46.9 °F 40.7 °F 29.91 in Calm     79% 0.00 in
08:39 47.7 °F 41.2 °F 29.91 in South 1.0 mph 3.0 mph 78% 0.00 in
08:44 48.3 °F 41.4 °F 29.91 in South 1.0 mph 1.0 mph 77% 0.00 in
08:49 49.2 °F 40.9 °F 29.90 in Calm   2.0 mph 73% 0.00 in
08:54 49.7 °F 41.7 °F 29.90 in South 1.0 mph 3.0 mph 74% 0.00 in
08:59 50.3 °F 42.0 °F 29.90 in Calm     73% 0.00 in
09:04 50.9 °F 41.8 °F 29.90 in Calm   2.0 mph 71% 0.00 in
09:09 51.4 °F 42.7 °F 29.89 in Calm     72% 0.00 in
09:14 51.9 °F 42.8 °F 29.89 in South 1.0 mph 3.0 mph 71% 0.00 in
09:19 52.2 °F 42.3 °F 29.89 in South 1.0 mph 3.0 mph 69% 0.00 in
09:24 52.8 °F 43.3 °F 29.89 in Calm   5.0 mph 70% 0.00 in
09:29 53.2 °F 43.3 °F 29.89 in South 2.0 mph 5.0 mph 69% 0.00 in
09:34 53.6 °F 44.0 °F 29.89 in South 3.0 mph 5.0 mph 70% 0.00 in
09:39 54.3 °F 44.0 °F 29.89 in SSW 3.0 mph 5.0 mph 68% 0.00 in
09:44 54.2 °F 43.5 °F 29.89 in South 4.0 mph 7.0 mph 67% 0.00 in
09:49 54.4 °F 44.1 °F 29.89 in SSW 3.0 mph 7.0 mph 68% 0.00 in
09:54 55.3 °F 44.9 °F 29.89 in SSW 3.0 mph 6.0 mph 68% 0.00 in
09:59 56.0 °F 45.2 °F 29.89 in SW 3.0 mph 6.0 mph 67% 0.00 in
10:04 55.9 °F 44.7 °F 29.89 in SW 3.0 mph 6.0 mph 66% 0.00 in
10:09 56.6 °F 45.4 °F 29.88 in South 5.0 mph 5.0 mph 66% 0.00 in
10:14 57.5 °F 46.2 °F 29.88 in South 6.0 mph 6.0 mph 66% 0.00 in
10:19 57.7 °F 46.0 °F 29.88 in SW 5.0 mph 8.0 mph 65% 0.00 in
10:24 58.6 °F 46.9 °F 29.88 in SW 4.0 mph 8.0 mph 65% 0.00 in
10:29 58.8 °F 46.6 °F 29.88 in SSW 4.0 mph 9.0 mph 64% 0.00 in
10:34 58.2 °F 46.9 °F 29.87 in SW 4.0 mph 9.0 mph 66% 0.00 in
10:39 57.7 °F 46.4 °F 29.87 in SW 8.0 mph 9.0 mph 66% 0.00 in
10:44 57.6 °F 46.7 °F 29.88 in SSW 3.0 mph 9.0 mph 67% 0.00 in
10:49 57.8 °F 46.9 °F 29.87 in SW 7.0 mph 8.0 mph 67% 0.00 in
10:54 57.6 °F 47.1 °F 29.87 in SW 5.0 mph 9.0 mph 68% 0.00 in
10:59 57.6 °F 47.5 °F 29.87 in SW 5.0 mph 9.0 mph 69% 0.00 in
11:04 57.3 °F 46.8 °F 29.87 in SW 5.0 mph 11.0 mph 68% 0.00 in
11:09 57.4 °F 47.3 °F 29.87 in WSW 6.0 mph 11.0 mph 69% 0.00 in
11:14 57.5 °F 47.0 °F 29.87 in WSW 6.0 mph 11.0 mph 68% 0.00 in
11:19 57.5 °F 47.4 °F 29.86 in WSW 6.0 mph 11.0 mph 69% 0.00 in
11:24 57.9 °F 47.8 °F 29.87 in SW 2.0 mph 11.0 mph 69% 0.00 in
11:29 58.4 °F 48.3 °F 29.87 in SW 7.0 mph 13.0 mph 69% 0.00 in
11:34 58.6 °F 48.5 °F 29.86 in WSW 6.0 mph 11.0 mph 69% 0.00 in
11:39 58.7 °F 48.9 °F 29.86 in SW 6.0 mph 11.0 mph 70% 0.00 in
11:44 59.4 °F 48.8 °F 29.86 in WSW 5.0 mph 9.0 mph 68% 0.00 in
11:49 59.3 °F 49.1 °F 29.86 in WSW 4.0 mph 11.0 mph 69% 0.00 in
11:54 58.9 °F 48.7 °F 29.86 in WSW 6.0 mph 11.0 mph 69% 0.00 in
11:59 58.3 °F 48.6 °F 29.86 in WSW 7.0 mph 15.0 mph 70% 0.00 in
12:04 58.3 °F 48.9 °F 29.86 in WSW 8.0 mph 15.0 mph 71% 0.00 in
12:09 58.4 °F 49.4 °F 29.86 in WSW 7.0 mph 15.0 mph 72% 0.00 in
12:14 58.1 °F 49.1 °F 29.86 in WSW 7.0 mph 15.0 mph 72% 0.00 in
12:19 57.8 °F 49.6 °F 29.86 in WSW 6.0 mph 12.0 mph 74% 0.00 in
12:24 57.3 °F 49.4 °F 29.85 in WNW 4.0 mph 11.0 mph 75% 0.00 in
12:29 56.7 °F 49.2 °F 29.85 in WNW 5.0 mph 14.0 mph 76% 0.00 in
12:34 56.6 °F 49.5 °F 29.85 in WSW 8.0 mph 12.0 mph 77% 0.00 in
12:39 56.4 °F 49.3 °F 29.85 in West 3.0 mph 13.0 mph 77% 0.00 in
12:44 56.3 °F 49.2 °F 29.85 in West 2.0 mph 10.0 mph 77% 0.00 in
12:49 56.1 °F 49.0 °F 29.85 in West 4.0 mph 9.0 mph 77% 0.00 in
12:54 55.8 °F 48.7 °F 29.85 in West 4.0 mph 9.0 mph 77% 0.00 in
12:59 55.9 °F 48.8 °F 29.85 in WSW 3.0 mph 7.0 mph 77% 0.00 in
13:04 55.9 °F 48.8 °F 29.85 in WSW 4.0 mph 7.0 mph 77% 0.00 in
13:09 55.9 °F 48.8 °F 29.85 in SW 4.0 mph 9.0 mph 77% 0.00 in
13:14 55.9 °F 48.8 °F 29.85 in WSW 2.0 mph 7.0 mph 77% 0.00 in
13:19 55.9 °F 49.1 °F 29.85 in SW 4.0 mph 8.0 mph 78% 0.00 in
13:24 56.0 °F 49.2 °F 29.85 in SW 3.0 mph 10.0 mph 78% 0.00 in
13:29 56.3 °F 49.5 °F 29.84 in WSW 5.0 mph 10.0 mph 78% 0.00 in
13:34 56.4 °F 49.6 °F 29.84 in WSW 5.0 mph 9.0 mph 78% 0.00 in
13:39 56.5 °F 49.7 °F 29.84 in WSW 5.0 mph 9.0 mph 78% 0.00 in
13:44 56.6 °F 49.8 °F 29.84 in WSW 5.0 mph 9.0 mph 78% 0.00 in
13:49 56.8 °F 50.0 °F 29.84 in WSW 5.0 mph 9.0 mph 78% 0.00 in
13:54 56.9 °F 49.8 °F 29.84 in WSW 5.0 mph 10.0 mph 77% 0.00 in
13:59 56.5 °F 49.7 °F 29.84 in SW 5.0 mph 10.0 mph 78% 0.00 in
14:04 56.1 °F 49.3 °F 29.84 in SW 5.0 mph 10.0 mph 78% 0.00 in
14:09 55.3 °F 48.6 °F 29.84 in SW 8.0 mph 9.0 mph 78% 0.00 in
14:14 55.1 °F 48.7 °F 29.83 in WSW 5.0 mph 9.0 mph 79% 0.00 in
14:19 54.8 °F 48.7 °F 29.83 in SW 2.0 mph 9.0 mph 80% 0.00 in
14:24 54.7 °F 48.6 °F 29.83 in SW 3.0 mph 8.0 mph 80% 0.00 in
14:29 54.6 °F 48.6 °F 29.83 in WSW 5.0 mph 9.0 mph 80% 0.00 in
14:34 54.4 °F 48.7 °F 29.83 in WSW 5.0 mph 11.0 mph 81% 0.00 in
14:39 54.2 °F 48.5 °F 29.83 in WSW 5.0 mph 12.0 mph 81% 0.00 in
14:44 54.1 °F 48.4 °F 29.83 in WSW 5.0 mph 12.0 mph 81% 0.00 in
14:49 54.0 °F 48.3 °F 29.83 in SW 5.0 mph 10.0 mph 81% 0.00 in
14:54 53.8 °F 48.4 °F 29.83 in SW 5.0 mph 10.0 mph 82% 0.00 in
14:59 53.9 °F 48.5 °F 29.83 in SW 4.0 mph 10.0 mph 82% 0.00 in
15:04 54.1 °F 48.7 °F 29.83 in WSW 3.0 mph 7.0 mph 82% 0.00 in
15:09 54.0 °F 48.6 °F 29.83 in West 2.0 mph 6.0 mph 82% 0.00 in
15:14 54.0 °F 48.6 °F 29.83 in SSW 4.0 mph 7.0 mph 82% 0.00 in
15:19 53.8 °F 48.8 °F 29.82 in West 4.0 mph 8.0 mph 83% 0.00 in
15:24 53.9 °F 48.9 °F 29.82 in WSW 1.0 mph 6.0 mph 83% 0.00 in
15:29 53.9 °F 48.9 °F 29.82 in SW 4.0 mph 6.0 mph 83% 0.00 in
15:34 53.6 °F 48.6 °F 29.82 in WSW 3.0 mph 6.0 mph 83% 0.00 in
15:39 53.5 °F 48.5 °F 29.82 in SW 3.0 mph 6.0 mph 83% 0.00 in
15:44 53.4 °F 48.7 °F 29.82 in WSW 3.0 mph 6.0 mph 84% 0.00 in
15:49 53.3 °F 48.6 °F 29.82 in SW 3.0 mph 6.0 mph 84% 0.00 in
15:54 53.3 °F 48.6 °F 29.82 in WSW 3.0 mph 5.0 mph 84% 0.00 in
15:59 53.3 °F 48.6 °F 29.82 in SW 5.0 mph 7.0 mph 84% 0.00 in
16:04 53.2 °F 48.5 °F 29.82 in SW 2.0 mph 5.0 mph 84% 0.00 in
16:09 53.1 °F 48.4 °F 29.82 in South 4.0 mph 4.0 mph 84% 0.00 in
16:14 53.1 °F 48.7 °F 29.82 in SSW 2.0 mph 4.0 mph 85% 0.00 in
16:19 53.3 °F 48.9 °F 29.81 in SSW 2.0 mph 4.0 mph 85% 0.00 in
16:24 53.6 °F 49.2 °F 29.81 in SW 1.0 mph 6.0 mph 85% 0.00 in
16:29 53.9 °F 49.5 °F 29.81 in SW 1.0 mph 4.0 mph 85% 0.00 in
16:34 54.1 °F 49.7 °F 29.81 in SW 2.0 mph 4.0 mph 85% 0.00 in
16:39 54.2 °F 49.8 °F 29.81 in WSW 1.0 mph 4.0 mph 85% 0.00 in
16:44 54.3 °F 49.9 °F 29.81 in West 3.0 mph 7.0 mph 85% 0.00 in
16:49 54.4 °F 50.0 °F 29.81 in WSW 3.0 mph 7.0 mph 85% 0.00 in
16:54 54.4 °F 50.0 °F 29.80 in WSW 2.0 mph 5.0 mph 85% 0.00 in
16:59 54.4 °F 50.0 °F 29.81 in WSW 3.0 mph 6.0 mph 85% 0.00 in
17:04 54.4 °F 50.0 °F 29.80 in WSW 3.0 mph 6.0 mph 85% 0.00 in
17:09 54.5 °F 50.1 °F 29.80 in WSW 2.0 mph 5.0 mph 85% 0.00 in
17:14 54.6 °F 50.2 °F 29.80 in WSW 1.0 mph 5.0 mph 85% 0.00 in
17:19 54.4 °F 50.0 °F 29.80 in Calm   4.0 mph 85% 0.00 in
17:24 54.3 °F 50.2 °F 29.80 in Calm   5.0 mph 86% 0.00 in
17:29 54.3 °F 50.2 °F 29.80 in West 1.0 mph 4.0 mph 86% 0.00 in
17:34 54.3 °F 50.2 °F 29.80 in West 2.0 mph 4.0 mph 86% 0.00 in
17:39 54.2 °F 50.1 °F 29.80 in West 4.0 mph 6.0 mph 86% 0.00 in
17:44 54.2 °F 50.1 °F 29.80 in WSW 1.0 mph 5.0 mph 86% 0.00 in
17:49 54.2 °F 50.1 °F 29.80 in WSW 2.0 mph 5.0 mph 86% 0.00 in
17:54 54.1 °F 50.0 °F 29.80 in WSW 2.0 mph 4.0 mph 86% 0.00 in
17:59 54.1 °F 50.0 °F 29.80 in WSW 2.0 mph 3.0 mph 86% 0.00 in
18:04 54.1 °F 50.0 °F 29.80 in WSW 2.0 mph 4.0 mph 86% 0.00 in
18:09 53.9 °F 49.8 °F 29.80 in WSW 3.0 mph 4.0 mph 86% 0.00 in
18:14 53.8 °F 49.7 °F 29.80 in WSW 2.0 mph 4.0 mph 86% 0.00 in
18:19 53.7 °F 49.6 °F 29.80 in SW 2.0 mph 4.0 mph 86% 0.00 in
18:24 53.6 °F 49.5 °F 29.80 in SW 1.0 mph 2.0 mph 86% 0.00 in
18:29 53.6 °F 49.5 °F 29.80 in SW 2.0 mph 2.0 mph 86% 0.00 in
18:34 53.4 °F 49.3 °F 29.80 in Calm   3.0 mph 86% 0.00 in
18:39 53.3 °F 49.2 °F 29.80 in Calm   4.0 mph 86% 0.00 in
18:44 53.2 °F 49.1 °F 29.80 in SW 2.0 mph 4.0 mph 86% 0.00 in
18:49 53.1 °F 49.3 °F 29.80 in SW 2.0 mph 4.0 mph 87% 0.00 in
18:54 53.1 °F 49.3 °F 29.81 in SW 2.0 mph 4.0 mph 87% 0.00 in
18:59 53.0 °F 48.9 °F 29.80 in WSW 1.0 mph 4.0 mph 86% 0.00 in
19:04 53.0 °F 49.2 °F 29.81 in WSW 1.0 mph 4.0 mph 87% 0.00 in
19:09 52.9 °F 49.1 °F 29.81 in Calm   2.0 mph 87% 0.00 in
19:14 52.9 °F 49.1 °F 29.80 in Calm   1.0 mph 87% 0.00 in
19:19 52.9 °F 49.1 °F 29.80 in Calm     87% 0.00 in
19:24 52.9 °F 49.1 °F 29.80 in WSW 1.0 mph 3.0 mph 87% 0.00 in
19:29 52.8 °F 49.0 °F 29.80 in Calm   2.0 mph 87% 0.00 in
19:34 52.7 °F 48.9 °F 29.80 in Calm   1.0 mph 87% 0.00 in
19:39 52.8 °F 49.0 °F 29.80 in SSW 1.0 mph 3.0 mph 87% 0.00 in
19:44 52.8 °F 49.0 °F 29.80 in SSW 1.0 mph 3.0 mph 87% 0.00 in
19:49 53.0 °F 49.2 °F 29.80 in SSW 2.0 mph 3.0 mph 87% 0.00 in
19:54 53.1 °F 49.3 °F 29.80 in SSW 2.0 mph 4.0 mph 87% 0.00 in
19:59 53.1 °F 49.0 °F 29.80 in Calm   2.0 mph 86% 0.00 in
20:04 53.0 °F 48.9 °F 29.80 in SSW 1.0 mph 2.0 mph 86% 0.00 in
20:09 53.0 °F 49.2 °F 29.80 in Calm   2.0 mph 87% 0.00 in
20:14 53.1 °F 49.3 °F 29.80 in Calm   1.0 mph 87% 0.00 in
20:19 53.1 °F 49.3 °F 29.80 in Calm   1.0 mph 87% 0.00 in
20:24 53.2 °F 49.4 °F 29.80 in Calm     87% 0.00 in
20:29 53.2 °F 49.4 °F 29.80 in SSW 1.0 mph 2.0 mph 87% 0.00 in
20:34 53.3 °F 49.5 °F 29.80 in Calm   2.0 mph 87% 0.00 in
20:39 53.3 °F 49.5 °F 29.80 in SSW 1.0 mph 2.0 mph 87% 0.00 in
20:44 53.5 °F 49.7 °F 29.80 in SSW 1.0 mph 3.0 mph 87% 0.00 in
20:49 53.6 °F 49.8 °F 29.80 in SSW 1.0 mph 3.0 mph 87% 0.00 in
20:54 53.8 °F 50.0 °F 29.80 in SSW 2.0 mph 4.0 mph 87% 0.00 in
20:59 54.0 °F 50.2 °F 29.80 in SSW 3.0 mph 4.0 mph 87% 0.00 in
21:04 54.2 °F 50.4 °F 29.79 in South 4.0 mph 5.0 mph 87% 0.00 in
21:09 54.6 °F 50.8 °F 29.80 in South 2.0 mph 5.0 mph 87% 0.00 in
21:14 54.9 °F 51.1 °F 29.79 in SSW 3.0 mph 6.0 mph 87% 0.00 in
21:19 55.2 °F 51.4 °F 29.79 in SSW 3.0 mph 7.0 mph 87% 0.00 in
21:24 55.4 °F 51.6 °F 29.79 in SSW 3.0 mph 7.0 mph 87% 0.00 in
21:29 55.6 °F 51.5 °F 29.79 in SSW 4.0 mph 6.0 mph 86% 0.00 in
21:34 55.8 °F 51.7 °F 29.79 in SSW 2.0 mph 6.0 mph 86% 0.00 in
21:39 56.0 °F 51.9 °F 29.78 in SSW 2.0 mph 6.0 mph 86% 0.00 in
21:44 56.1 °F 51.7 °F 29.79 in SSW 3.0 mph 8.0 mph 85% 0.00 in
21:49 56.2 °F 51.7 °F 29.79 in SSW 4.0 mph 9.0 mph 85% 0.00 in
21:54 56.3 °F 51.8 °F 29.78 in South 7.0 mph 7.0 mph 85% 0.00 in
21:59 56.4 °F 51.6 °F 29.78 in SSW 3.0 mph 7.0 mph 84% 0.00 in
22:04 56.4 °F 51.6 °F 29.78 in SSW 4.0 mph 7.0 mph 84% 0.00 in
22:09 56.5 °F 51.7 °F 29.78 in SSW 2.0 mph 8.0 mph 84% 0.00 in
22:14 56.7 °F 51.9 °F 29.78 in SSW 4.0 mph 8.0 mph 84% 0.00 in
22:19 56.8 °F 51.7 °F 29.78 in SSW 4.0 mph 8.0 mph 83% 0.00 in
22:24 57.0 °F 51.9 °F 29.77 in SSW 4.0 mph 10.0 mph 83% 0.00 in
22:29 57.1 °F 51.7 °F 29.77 in SW 4.0 mph 10.0 mph 82% 0.00 in
22:34 57.1 °F 51.7 °F 29.77 in South 4.0 mph 7.0 mph 82% 0.00 in
22:39 57.2 °F 51.8 °F 29.77 in South 4.0 mph 7.0 mph 82% 0.00 in
22:44 57.2 °F 51.8 °F 29.77 in SSW 3.0 mph 6.0 mph 82% 0.00 in
22:49 57.1 °F 51.7 °F 29.77 in SSW 3.0 mph 7.0 mph 82% 0.00 in
22:54 57.1 °F 51.7 °F 29.76 in SSW 3.0 mph 7.0 mph 82% 0.00 in
22:59 57.3 °F 51.9 °F 29.76 in SSW 4.0 mph 8.0 mph 82% 0.00 in
23:04 57.3 °F 51.9 °F 29.76 in SSW 4.0 mph 8.0 mph 82% 0.00 in
23:09 57.4 °F 51.9 °F 29.76 in SSW 3.0 mph 8.0 mph 82% 0.00 in
23:14 57.5 °F 52.0 °F 29.76 in SW 5.0 mph 10.0 mph 82% 0.00 in
23:19 57.5 °F 51.7 °F 29.75 in SSW 4.0 mph 10.0 mph 81% 0.00 in
23:24 57.3 °F 51.9 °F 29.75 in SSW 5.0 mph 8.0 mph 82% 0.00 in
23:29 57.2 °F 51.8 °F 29.75 in West 4.0 mph 8.0 mph 82% 0.00 in
23:34 57.1 °F 51.7 °F 29.75 in SW 2.0 mph 7.0 mph 82% 0.00 in
23:39 57.1 °F 51.7 °F 29.75 in SW 2.0 mph 8.0 mph 82% 0.00 in
23:44 56.8 °F 51.4 °F 29.75 in SSW 3.0 mph 7.0 mph 82% 0.00 in
23:49 56.8 °F 51.7 °F 29.75 in SSW 3.0 mph 7.0 mph 83% 0.00 in
23:54 56.7 °F 51.6 °F 29.75 in South 2.0 mph 6.0 mph 83% 0.00 in
23:59 56.7 °F 51.6 °F 29.75 in SSW 3.0 mph 5.0 mph 83% 0.00 in
Buffalo, New York, USA
Compliments of Weather Underground - 2.5 mb